Terminal Aerodrome Forecast
Issued by NWS Amarillo, TX

Home | Current Version | Previous Version | Text Only | Print | Product List | Glossary On
Versions: 1 2 3 4 5 6 7 8 9 10 11 12 13 14 15 16 17 18 19
000
FTUS44 KAMA 012300
TAFGUY
TAF
KGUY 012329Z 0200/0224 17009KT P6SM SCT030 BKN300
     FM021500 20010KT P6SM SCT045 BKN300
     FM022000 16009KT P6SM SCT045 SCT300=

USA.gov is the U.S. government's official web portal to all federal, state and local government web resources and services.